sensor_id;sensor_type;location;lat;lon;timestamp;P1;durP1;ratioP1;P2;durP2;ratioP2
938;SDS011;456;53.584;9.968;2023-06-10T00:01:24;2.90;;;2.60;;
938;SDS011;456;53.584;9.968;2023-06-10T00:03:50;3.03;;;2.73;;
938;SDS011;456;53.584;9.968;2023-06-10T00:06:17;4.77;;;2.73;;
938;SDS011;456;53.584;9.968;2023-06-10T00:08:43;5.00;;;2.87;;
938;SDS011;456;53.584;9.968;2023-06-10T00:11:08;3.40;;;3.10;;
938;SDS011;456;53.584;9.968;2023-06-10T00:13:35;2.67;;;2.40;;
938;SDS011;456;53.584;9.968;2023-06-10T00:16:00;4.63;;;2.90;;
938;SDS011;456;53.584;9.968;2023-06-10T00:18:26;4.20;;;3.27;;
938;SDS011;456;53.584;9.968;2023-06-10T00:20:52;3.87;;;2.90;;
938;SDS011;456;53.584;9.968;2023-06-10T00:23:20;3.57;;;2.80;;
938;SDS011;456;53.584;9.968;2023-06-10T00:25:46;3.07;;;2.83;;
938;SDS011;456;53.584;9.968;2023-06-10T00:28:12;3.33;;;3.03;;
938;SDS011;456;53.584;9.968;2023-06-10T00:30:38;3.30;;;3.00;;
938;SDS011;456;53.584;9.968;2023-06-10T00:33:04;6.13;;;3.67;;
938;SDS011;456;53.584;9.968;2023-06-10T00:35:29;3.90;;;3.03;;
938;SDS011;456;53.584;9.968;2023-06-10T00:37:55;3.70;;;2.77;;
938;SDS011;456;53.584;9.968;2023-06-10T00:40:21;4.17;;;3.73;;
938;SDS011;456;53.584;9.968;2023-06-10T00:42:46;5.03;;;3.10;;
938;SDS011;456;53.584;9.968;2023-06-10T00:45:12;3.40;;;3.10;;
938;SDS011;456;53.584;9.968;2023-06-10T00:47:37;3.43;;;2.90;;
938;SDS011;456;53.584;9.968;2023-06-10T00:50:04;3.20;;;2.90;;
938;SDS011;456;53.584;9.968;2023-06-10T00:52:30;5.10;;;3.40;;
938;SDS011;456;53.584;9.968;2023-06-10T00:54:56;3.53;;;3.23;;
938;SDS011;456;53.584;9.968;2023-06-10T00:57:23;3.00;;;2.70;;
938;SDS011;456;53.584;9.968;2023-06-10T00:59:50;5.73;;;3.77;;
938;SDS011;456;53.584;9.968;2023-06-10T01:02:16;3.23;;;2.87;;
938;SDS011;456;53.584;9.968;2023-06-10T01:04:42;4.00;;;2.60;;
938;SDS011;456;53.584;9.968;2023-06-10T01:15:13;4.13;;;3.50;;
938;SDS011;456;53.584;9.968;2023-06-10T01:17:58;4.30;;;3.70;;
938;SDS011;456;53.584;9.968;2023-06-10T01:20:24;4.20;;;3.20;;
938;SDS011;456;53.584;9.968;2023-06-10T01:22:53;3.77;;;2.93;;
938;SDS011;456;53.584;9.968;2023-06-10T01:25:20;4.20;;;3.17;;
938;SDS011;456;53.584;9.968;2023-06-10T01:28:03;3.67;;;3.37;;
938;SDS011;456;53.584;9.968;2023-06-10T01:33:14;4.17;;;3.20;;
938;SDS011;456;53.584;9.968;2023-06-10T01:35:44;4.30;;;3.27;;
938;SDS011;456;53.584;9.968;2023-06-10T01:38:12;4.00;;;3.10;;
938;SDS011;456;53.584;9.968;2023-06-10T01:40:39;3.53;;;2.80;;
938;SDS011;456;53.584;9.968;2023-06-10T01:43:05;3.77;;;3.23;;
938;SDS011;456;53.584;9.968;2023-06-10T01:45:31;5.57;;;3.67;;
938;SDS011;456;53.584;9.968;2023-06-10T01:47:57;3.47;;;3.17;;
938;SDS011;456;53.584;9.968;2023-06-10T01:50:22;4.43;;;3.17;;
938;SDS011;456;53.584;9.968;2023-06-10T01:52:48;4.30;;;3.13;;
938;SDS011;456;53.584;9.968;2023-06-10T01:55:13;4.63;;;3.30;;
938;SDS011;456;53.584;9.968;2023-06-10T01:57:39;3.53;;;3.13;;
938;SDS011;456;53.584;9.968;2023-06-10T02:00:05;3.90;;;3.50;;
938;SDS011;456;53.584;9.968;2023-06-10T02:02:31;5.53;;;3.40;;
938;SDS011;456;53.584;9.968;2023-06-10T02:04:56;3.10;;;2.73;;
938;SDS011;456;53.584;9.968;2023-06-10T02:07:22;3.80;;;3.10;;
938;SDS011;456;53.584;9.968;2023-06-10T02:09:48;3.33;;;3.00;;
938;SDS011;456;53.584;9.968;2023-06-10T02:12:13;4.50;;;3.40;;
938;SDS011;456;53.584;9.968;2023-06-10T02:14:39;4.43;;;3.17;;
938;SDS011;456;53.584;9.968;2023-06-10T02:17:04;4.43;;;3.57;;
938;SDS011;456;53.584;9.968;2023-06-10T02:19:30;4.10;;;3.33;;
938;SDS011;456;53.584;9.968;2023-06-10T02:21:56;3.40;;;2.93;;
938;SDS011;456;53.584;9.968;2023-06-10T02:24:21;3.23;;;2.90;;
938;SDS011;456;53.584;9.968;2023-06-10T02:26:47;4.20;;;3.43;;
938;SDS011;456;53.584;9.968;2023-06-10T02:29:13;3.80;;;3.50;;
938;SDS011;456;53.584;9.968;2023-06-10T02:31:38;3.73;;;3.40;;
938;SDS011;456;53.584;9.968;2023-06-10T02:34:04;3.70;;;3.40;;
938;SDS011;456;53.584;9.968;2023-06-10T02:36:30;5.40;;;3.90;;
938;SDS011;456;53.584;9.968;2023-06-10T02:38:56;5.50;;;3.80;;
938;SDS011;456;53.584;9.968;2023-06-10T02:41:22;4.43;;;3.60;;
938;SDS011;456;53.584;9.968;2023-06-10T02:43:48;3.33;;;2.90;;
938;SDS011;456;53.584;9.968;2023-06-10T02:46:13;3.93;;;3.53;;
938;SDS011;456;53.584;9.968;2023-06-10T02:48:42;3.43;;;3.07;;
938;SDS011;456;53.584;9.968;2023-06-10T02:51:11;3.93;;;3.43;;
938;SDS011;456;53.584;9.968;2023-06-10T02:53:37;4.67;;;2.97;;
938;SDS011;456;53.584;9.968;2023-06-10T02:56:03;6.93;;;3.53;;
938;SDS011;456;53.584;9.968;2023-06-10T02:58:28;4.50;;;3.30;;
938;SDS011;456;53.584;9.968;2023-06-10T03:00:54;4.17;;;3.73;;
938;SDS011;456;53.584;9.968;2023-06-10T03:03:20;4.00;;;3.40;;
938;SDS011;456;53.584;9.968;2023-06-10T03:05:47;5.00;;;3.60;;
938;SDS011;456;53.584;9.968;2023-06-10T03:08:13;3.37;;;3.07;;
938;SDS011;456;53.584;9.968;2023-06-10T03:10:39;5.50;;;3.37;;
938;SDS011;456;53.584;9.968;2023-06-10T03:13:04;3.93;;;3.10;;
938;SDS011;456;53.584;9.968;2023-06-10T03:15:30;3.60;;;3.13;;
938;SDS011;456;53.584;9.968;2023-06-10T03:17:57;5.40;;;3.83;;
938;SDS011;456;53.584;9.968;2023-06-10T03:20:27;4.43;;;3.70;;
938;SDS011;456;53.584;9.968;2023-06-10T03:22:53;3.50;;;2.83;;
938;SDS011;456;53.584;9.968;2023-06-10T03:25:19;3.70;;;3.30;;
938;SDS011;456;53.584;9.968;2023-06-10T03:27:46;3.30;;;3.00;;
938;SDS011;456;53.584;9.968;2023-06-10T03:30:12;3.13;;;2.40;;
938;SDS011;456;53.584;9.968;2023-06-10T03:32:38;4.13;;;3.47;;
938;SDS011;456;53.584;9.968;2023-06-10T03:35:04;4.43;;;3.07;;
938;SDS011;456;53.584;9.968;2023-06-10T03:37:31;3.63;;;3.30;;
938;SDS011;456;53.584;9.968;2023-06-10T03:39:57;3.63;;;3.33;;
938;SDS011;456;53.584;9.968;2023-06-10T03:42:22;4.37;;;3.13;;
938;SDS011;456;53.584;9.968;2023-06-10T03:44:48;4.30;;;3.40;;
938;SDS011;456;53.584;9.968;2023-06-10T03:47:13;3.50;;;3.20;;
938;SDS011;456;53.584;9.968;2023-06-10T03:49:39;3.83;;;2.90;;
938;SDS011;456;53.584;9.968;2023-06-10T03:52:05;4.57;;;3.40;;
938;SDS011;456;53.584;9.968;2023-06-10T03:54:31;4.10;;;3.10;;
938;SDS011;456;53.584;9.968;2023-06-10T03:56:59;3.60;;;3.30;;
938;SDS011;456;53.584;9.968;2023-06-10T03:59:25;3.40;;;3.10;;
938;SDS011;456;53.584;9.968;2023-06-10T04:01:51;3.20;;;2.60;;
938;SDS011;456;53.584;9.968;2023-06-10T04:04:16;3.23;;;2.77;;
938;SDS011;456;53.584;9.968;2023-06-10T04:06:42;3.70;;;3.40;;
938;SDS011;456;53.584;9.968;2023-06-10T04:09:12;3.90;;;3.40;;
938;SDS011;456;53.584;9.968;2023-06-10T04:11:37;3.20;;;2.90;;
938;SDS011;456;53.584;9.968;2023-06-10T04:14:03;2.70;;;2.50;;
938;SDS011;456;53.584;9.968;2023-06-10T04:16:29;3.40;;;3.10;;
938;SDS011;456;53.584;9.968;2023-06-10T04:18:54;4.50;;;2.40;;
938;SDS011;456;53.584;9.968;2023-06-10T04:21:20;5.37;;;3.07;;
938;SDS011;456;53.584;9.968;2023-06-10T04:23:46;4.40;;;3.00;;
938;SDS011;456;53.584;9.968;2023-06-10T04:26:13;3.17;;;2.77;;
938;SDS011;456;53.584;9.968;2023-06-10T04:28:39;3.30;;;2.50;;
938;SDS011;456;53.584;9.968;2023-06-10T04:31:04;3.33;;;3.10;;
938;SDS011;456;53.584;9.968;2023-06-10T04:33:30;2.93;;;2.60;;
938;SDS011;456;53.584;9.968;2023-06-10T04:35:56;3.47;;;2.77;;
938;SDS011;456;53.584;9.968;2023-06-10T04:38:22;3.10;;;2.77;;
938;SDS011;456;53.584;9.968;2023-06-10T04:40:48;3.10;;;2.80;;
938;SDS011;456;53.584;9.968;2023-06-10T04:43:13;3.73;;;3.20;;
938;SDS011;456;53.584;9.968;2023-06-10T04:45:39;3.70;;;3.30;;
938;SDS011;456;53.584;9.968;2023-06-10T04:48:04;2.93;;;2.67;;
938;SDS011;456;53.584;9.968;2023-06-10T04:50:30;3.63;;;3.10;;
938;SDS011;456;53.584;9.968;2023-06-10T04:52:58;2.67;;;2.43;;
938;SDS011;456;53.584;9.968;2023-06-10T04:55:24;2.63;;;2.30;;
938;SDS011;456;53.584;9.968;2023-06-10T04:57:50;4.90;;;3.00;;
938;SDS011;456;53.584;9.968;2023-06-10T05:00:16;3.60;;;2.90;;
938;SDS011;456;53.584;9.968;2023-06-10T05:02:42;3.50;;;2.73;;
938;SDS011;456;53.584;9.968;2023-06-10T05:05:08;4.23;;;3.00;;
938;SDS011;456;53.584;9.968;2023-06-10T05:07:33;5.10;;;2.90;;
938;SDS011;456;53.584;9.968;2023-06-10T05:09:59;4.00;;;2.83;;
938;SDS011;456;53.584;9.968;2023-06-10T05:12:25;4.47;;;3.00;;
938;SDS011;456;53.584;9.968;2023-06-10T05:14:51;2.63;;;2.33;;
938;SDS011;456;53.584;9.968;2023-06-10T05:17:17;5.83;;;3.10;;
938;SDS011;456;53.584;9.968;2023-06-10T05:19:42;3.83;;;3.00;;
938;SDS011;456;53.584;9.968;2023-06-10T05:22:08;3.63;;;3.00;;
938;SDS011;456;53.584;9.968;2023-06-10T05:24:34;4.00;;;2.53;;
938;SDS011;456;53.584;9.968;2023-06-10T05:27:00;4.87;;;2.73;;
938;SDS011;456;53.584;9.968;2023-06-10T05:29:25;3.47;;;2.90;;
938;SDS011;456;53.584;9.968;2023-06-10T05:31:51;2.67;;;2.47;;
938;SDS011;456;53.584;9.968;2023-06-10T05:34:17;5.50;;;3.10;;
938;SDS011;456;53.584;9.968;2023-06-10T05:36:43;3.00;;;2.70;;
938;SDS011;456;53.584;9.968;2023-06-10T05:39:09;4.30;;;2.63;;
938;SDS011;456;53.584;9.968;2023-06-10T05:41:35;4.37;;;2.60;;
938;SDS011;456;53.584;9.968;2023-06-10T05:44:01;5.47;;;3.00;;
938;SDS011;456;53.584;9.968;2023-06-10T05:46:26;3.07;;;2.77;;
938;SDS011;456;53.584;9.968;2023-06-10T05:48:52;3.43;;;3.13;;
938;SDS011;456;53.584;9.968;2023-06-10T05:51:17;3.20;;;2.90;;
938;SDS011;456;53.584;9.968;2023-06-10T05:53:43;3.10;;;2.80;;
938;SDS011;456;53.584;9.968;2023-06-10T05:56:11;3.80;;;3.23;;
938;SDS011;456;53.584;9.968;2023-06-10T05:58:37;3.93;;;3.10;;
938;SDS011;456;53.584;9.968;2023-06-10T06:01:03;5.80;;;3.00;;
938;SDS011;456;53.584;9.968;2023-06-10T06:03:28;6.20;;;3.03;;
938;SDS011;456;53.584;9.968;2023-06-10T06:05:54;2.70;;;2.30;;
938;SDS011;456;53.584;9.968;2023-06-10T06:08:19;4.13;;;2.80;;
938;SDS011;456;53.584;9.968;2023-06-10T06:10:45;3.43;;;3.03;;
938;SDS011;456;53.584;9.968;2023-06-10T06:13:12;4.00;;;2.70;;
938;SDS011;456;53.584;9.968;2023-06-10T06:15:38;4.00;;;2.20;;
938;SDS011;456;53.584;9.968;2023-06-10T06:18:03;3.60;;;3.03;;
938;SDS011;456;53.584;9.968;2023-06-10T06:20:29;3.43;;;2.77;;
938;SDS011;456;53.584;9.968;2023-06-10T06:22:55;4.70;;;3.00;;
938;SDS011;456;53.584;9.968;2023-06-10T06:25:20;4.00;;;2.90;;
938;SDS011;456;53.584;9.968;2023-06-10T06:27:46;3.97;;;2.53;;
938;SDS011;456;53.584;9.968;2023-06-10T06:30:11;4.53;;;2.83;;
938;SDS011;456;53.584;9.968;2023-06-10T06:32:37;3.13;;;2.93;;
938;SDS011;456;53.584;9.968;2023-06-10T06:35:03;3.40;;;2.83;;
938;SDS011;456;53.584;9.968;2023-06-10T06:37:30;3.33;;;2.80;;
938;SDS011;456;53.584;9.968;2023-06-10T06:39:57;3.93;;;2.97;;
938;SDS011;456;53.584;9.968;2023-06-10T06:42:23;3.20;;;2.30;;
938;SDS011;456;53.584;9.968;2023-06-10T06:44:48;4.70;;;2.90;;
938;SDS011;456;53.584;9.968;2023-06-10T06:47:14;3.27;;;2.93;;
938;SDS011;456;53.584;9.968;2023-06-10T06:49:42;3.40;;;3.10;;
938;SDS011;456;53.584;9.968;2023-06-10T06:52:08;4.00;;;2.60;;
938;SDS011;456;53.584;9.968;2023-06-10T06:54:34;3.83;;;3.47;;
938;SDS011;456;53.584;9.968;2023-06-10T06:56:59;3.40;;;2.80;;
938;SDS011;456;53.584;9.968;2023-06-10T06:59:25;2.57;;;2.37;;
938;SDS011;456;53.584;9.968;2023-06-10T07:01:50;3.40;;;2.30;;
938;SDS011;456;53.584;9.968;2023-06-10T07:04:19;4.00;;;2.93;;
938;SDS011;456;53.584;9.968;2023-06-10T07:06:46;3.00;;;2.53;;
938;SDS011;456;53.584;9.968;2023-06-10T07:09:12;5.67;;;2.73;;
938;SDS011;456;53.584;9.968;2023-06-10T07:11:38;3.73;;;2.67;;
938;SDS011;456;53.584;9.968;2023-06-10T07:14:04;2.90;;;2.60;;
938;SDS011;456;53.584;9.968;2023-06-10T07:16:30;3.70;;;3.23;;
938;SDS011;456;53.584;9.968;2023-06-10T07:18:55;3.10;;;2.60;;
938;SDS011;456;53.584;9.968;2023-06-10T07:21:21;3.03;;;2.50;;
938;SDS011;456;53.584;9.968;2023-06-10T07:23:48;2.90;;;2.40;;
938;SDS011;456;53.584;9.968;2023-06-10T07:26:14;5.33;;;2.63;;
938;SDS011;456;53.584;9.968;2023-06-10T07:28:40;4.13;;;3.00;;
938;SDS011;456;53.584;9.968;2023-06-10T07:31:06;3.67;;;3.30;;
938;SDS011;456;53.584;9.968;2023-06-10T07:33:33;3.07;;;2.67;;
938;SDS011;456;53.584;9.968;2023-06-10T07:35:59;3.47;;;2.73;;
938;SDS011;456;53.584;9.968;2023-06-10T07:38:25;4.23;;;3.00;;
938;SDS011;456;53.584;9.968;2023-06-10T07:40:51;3.13;;;2.63;;
938;SDS011;456;53.584;9.968;2023-06-10T07:43:17;3.07;;;2.77;;
938;SDS011;456;53.584;9.968;2023-06-10T07:45:43;2.90;;;2.53;;
938;SDS011;456;53.584;9.968;2023-06-10T07:48:09;2.70;;;2.50;;
938;SDS011;456;53.584;9.968;2023-06-10T07:50:35;2.63;;;2.43;;
938;SDS011;456;53.584;9.968;2023-06-10T07:53:00;3.57;;;3.20;;
938;SDS011;456;53.584;9.968;2023-06-10T07:55:26;4.50;;;3.00;;
938;SDS011;456;53.584;9.968;2023-06-10T07:57:52;5.07;;;3.13;;
938;SDS011;456;53.584;9.968;2023-06-10T08:00:21;5.30;;;3.47;;
938;SDS011;456;53.584;9.968;2023-06-10T08:02:47;5.87;;;3.17;;
938;SDS011;456;53.584;9.968;2023-06-10T08:05:12;3.50;;;2.87;;
938;SDS011;456;53.584;9.968;2023-06-10T08:07:38;3.13;;;2.90;;
938;SDS011;456;53.584;9.968;2023-06-10T08:10:05;2.87;;;2.57;;
938;SDS011;456;53.584;9.968;2023-06-10T08:12:32;3.20;;;2.90;;
938;SDS011;456;53.584;9.968;2023-06-10T08:14:58;3.40;;;2.90;;
938;SDS011;456;53.584;9.968;2023-06-10T08:17:24;3.27;;;2.97;;
938;SDS011;456;53.584;9.968;2023-06-10T08:19:50;3.20;;;2.57;;
938;SDS011;456;53.584;9.968;2023-06-10T08:22:15;2.77;;;2.37;;
938;SDS011;456;53.584;9.968;2023-06-10T08:24:41;3.63;;;3.10;;
938;SDS011;456;53.584;9.968;2023-06-10T08:27:07;5.83;;;3.27;;
938;SDS011;456;53.584;9.968;2023-06-10T08:29:32;2.43;;;2.23;;
938;SDS011;456;53.584;9.968;2023-06-10T08:31:58;2.70;;;2.20;;
938;SDS011;456;53.584;9.968;2023-06-10T08:34:24;3.40;;;2.73;;
938;SDS011;456;53.584;9.968;2023-06-10T08:36:50;3.00;;;2.60;;
938;SDS011;456;53.584;9.968;2023-06-10T08:39:20;2.97;;;2.60;;
938;SDS011;456;53.584;9.968;2023-06-10T08:41:51;3.90;;;2.90;;
938;SDS011;456;53.584;9.968;2023-06-10T08:44:39;3.20;;;2.63;;
938;SDS011;456;53.584;9.968;2023-06-10T08:47:14;3.73;;;2.50;;
938;SDS011;456;53.584;9.968;2023-06-10T08:49:44;2.80;;;2.60;;
938;SDS011;456;53.584;9.968;2023-06-10T08:52:15;4.20;;;2.67;;
938;SDS011;456;53.584;9.968;2023-06-10T08:54:43;2.83;;;2.23;;
938;SDS011;456;53.584;9.968;2023-06-10T08:57:11;3.47;;;2.70;;
938;SDS011;456;53.584;9.968;2023-06-10T08:59:38;2.70;;;2.03;;
938;SDS011;456;53.584;9.968;2023-06-10T09:02:04;3.33;;;2.80;;
938;SDS011;456;53.584;9.968;2023-06-10T09:04:31;3.37;;;2.43;;
938;SDS011;456;53.584;9.968;2023-06-10T09:06:59;4.03;;;2.43;;
938;SDS011;456;53.584;9.968;2023-06-10T09:09:27;2.70;;;2.30;;
938;SDS011;456;53.584;9.968;2023-06-10T09:11:55;2.83;;;2.43;;
938;SDS011;456;53.584;9.968;2023-06-10T09:14:21;3.37;;;2.47;;
938;SDS011;456;53.584;9.968;2023-06-10T09:16:47;3.63;;;2.23;;
938;SDS011;456;53.584;9.968;2023-06-10T09:19:14;2.33;;;1.97;;
938;SDS011;456;53.584;9.968;2023-06-10T09:21:41;2.60;;;2.10;;
938;SDS011;456;53.584;9.968;2023-06-10T09:24:06;4.00;;;3.20;;
938;SDS011;456;53.584;9.968;2023-06-10T09:26:32;2.20;;;2.00;;
938;SDS011;456;53.584;9.968;2023-06-10T09:29:04;2.20;;;2.00;;
938;SDS011;456;53.584;9.968;2023-06-10T09:31:36;2.43;;;2.23;;
938;SDS011;456;53.584;9.968;2023-06-10T09:36:39;2.83;;;2.23;;
938;SDS011;456;53.584;9.968;2023-06-10T09:39:05;2.30;;;2.10;;
938;SDS011;456;53.584;9.968;2023-06-10T09:41:42;2.93;;;2.60;;
938;SDS011;456;53.584;9.968;2023-06-10T09:44:11;2.00;;;1.80;;
938;SDS011;456;53.584;9.968;2023-06-10T09:46:39;2.60;;;2.23;;
938;SDS011;456;53.584;9.968;2023-06-10T09:49:05;2.00;;;1.80;;
938;SDS011;456;53.584;9.968;2023-06-10T09:51:30;2.53;;;2.33;;
938;SDS011;456;53.584;9.968;2023-06-10T09:53:56;2.40;;;2.20;;
938;SDS011;456;53.584;9.968;2023-06-10T09:56:32;4.63;;;2.20;;
938;SDS011;456;53.584;9.968;2023-06-10T09:59:01;2.40;;;1.90;;
938;SDS011;456;53.584;9.968;2023-06-10T10:01:27;2.50;;;2.10;;
938;SDS011;456;53.584;9.968;2023-06-10T10:03:53;3.37;;;2.13;;
938;SDS011;456;53.584;9.968;2023-06-10T10:06:19;2.60;;;2.40;;
938;SDS011;456;53.584;9.968;2023-06-10T10:08:47;5.50;;;2.33;;
938;SDS011;456;53.584;9.968;2023-06-10T10:11:14;2.70;;;2.20;;
938;SDS011;456;53.584;9.968;2023-06-10T10:13:42;2.40;;;2.20;;
938;SDS011;456;53.584;9.968;2023-06-10T10:16:11;2.50;;;2.30;;
938;SDS011;456;53.584;9.968;2023-06-10T10:18:41;2.43;;;2.23;;
938;SDS011;456;53.584;9.968;2023-06-10T10:21:13;2.07;;;1.80;;
938;SDS011;456;53.584;9.968;2023-06-10T10:23:57;2.20;;;2.00;;
938;SDS011;456;53.584;9.968;2023-06-10T10:26:31;3.00;;;2.47;;
938;SDS011;456;53.584;9.968;2023-06-10T10:29:20;2.33;;;2.13;;
938;SDS011;456;53.584;9.968;2023-06-10T10:31:54;1.93;;;1.73;;
938;SDS011;456;53.584;9.968;2023-06-10T10:34:29;3.53;;;2.40;;
938;SDS011;456;53.584;9.968;2023-06-10T10:37:03;2.80;;;2.27;;
938;SDS011;456;53.584;9.968;2023-06-10T10:39:29;3.20;;;2.33;;
938;SDS011;456;53.584;9.968;2023-06-10T10:41:56;2.20;;;2.00;;
938;SDS011;456;53.584;9.968;2023-06-10T10:44:22;2.40;;;1.73;;
938;SDS011;456;53.584;9.968;2023-06-10T10:46:50;1.83;;;1.70;;
938;SDS011;456;53.584;9.968;2023-06-10T10:49:17;2.00;;;1.90;;
938;SDS011;456;53.584;9.968;2023-06-10T10:51:59;3.10;;;2.20;;
938;SDS011;456;53.584;9.968;2023-06-10T11:02:34;2.93;;;2.07;;
938;SDS011;456;53.584;9.968;2023-06-10T11:05:00;4.37;;;2.17;;
938;SDS011;456;53.584;9.968;2023-06-10T11:07:26;3.63;;;2.40;;
938;SDS011;456;53.584;9.968;2023-06-10T11:09:59;6.00;;;2.40;;
938;SDS011;456;53.584;9.968;2023-06-10T11:12:41;3.30;;;2.40;;
938;SDS011;456;53.584;9.968;2023-06-10T11:15:10;2.80;;;2.17;;
938;SDS011;456;53.584;9.968;2023-06-10T11:23:33;2.63;;;2.00;;
938;SDS011;456;53.584;9.968;2023-06-10T11:26:15;2.63;;;2.00;;
938;SDS011;456;53.584;9.968;2023-06-10T11:28:42;4.03;;;2.47;;
938;SDS011;456;53.584;9.968;2023-06-10T11:31:18;2.80;;;2.07;;
938;SDS011;456;53.584;9.968;2023-06-10T11:33:46;2.90;;;2.40;;
938;SDS011;456;53.584;9.968;2023-06-10T11:36:13;3.00;;;2.40;;
938;SDS011;456;53.584;9.968;2023-06-10T11:38:40;2.90;;;1.80;;
938;SDS011;456;53.584;9.968;2023-06-10T11:41:06;2.97;;;1.93;;
938;SDS011;456;53.584;9.968;2023-06-10T11:43:32;2.57;;;2.10;;
938;SDS011;456;53.584;9.968;2023-06-10T11:45:58;3.10;;;2.80;;
938;SDS011;456;53.584;9.968;2023-06-10T11:48:25;5.13;;;2.20;;
938;SDS011;456;53.584;9.968;2023-06-10T11:50:53;2.33;;;2.10;;
938;SDS011;456;53.584;9.968;2023-06-10T11:53:19;4.63;;;2.60;;
938;SDS011;456;53.584;9.968;2023-06-10T11:55:48;2.77;;;2.40;;
938;SDS011;456;53.584;9.968;2023-06-10T11:58:15;3.70;;;2.47;;
938;SDS011;456;53.584;9.968;2023-06-10T12:00:54;2.43;;;2.20;;
938;SDS011;456;53.584;9.968;2023-06-10T12:03:23;4.23;;;2.27;;
938;SDS011;456;53.584;9.968;2023-06-10T12:06:00;2.33;;;2.13;;
938;SDS011;456;53.584;9.968;2023-06-10T12:08:28;2.23;;;2.03;;
938;SDS011;456;53.584;9.968;2023-06-10T12:10:54;2.70;;;2.10;;
938;SDS011;456;53.584;9.968;2023-06-10T12:13:21;2.70;;;2.50;;
938;SDS011;456;53.584;9.968;2023-06-10T12:15:48;2.37;;;2.17;;
938;SDS011;456;53.584;9.968;2023-06-10T12:18:17;2.83;;;2.53;;
938;SDS011;456;53.584;9.968;2023-06-10T12:20:44;5.13;;;2.57;;
938;SDS011;456;53.584;9.968;2023-06-10T12:23:10;3.63;;;2.50;;
938;SDS011;456;53.584;9.968;2023-06-10T12:25:37;3.83;;;2.53;;
938;SDS011;456;53.584;9.968;2023-06-10T12:28:03;3.63;;;2.30;;
938;SDS011;456;53.584;9.968;2023-06-10T12:30:31;3.23;;;2.33;;
938;SDS011;456;53.584;9.968;2023-06-10T12:32:57;3.50;;;2.50;;
938;SDS011;456;53.584;9.968;2023-06-10T12:35:24;2.77;;;2.57;;
938;SDS011;456;53.584;9.968;2023-06-10T12:38:06;3.00;;;2.67;;
938;SDS011;456;53.584;9.968;2023-06-10T12:40:36;5.77;;;3.63;;
938;SDS011;456;53.584;9.968;2023-06-10T12:43:05;2.90;;;2.60;;
938;SDS011;456;53.584;9.968;2023-06-10T12:45:31;3.67;;;2.90;;
938;SDS011;456;53.584;9.968;2023-06-10T12:48:31;3.53;;;3.23;;
938;SDS011;456;53.584;9.968;2023-06-10T12:50:53;2.57;;;2.37;;
938;SDS011;456;53.584;9.968;2023-06-10T12:53:20;3.30;;;2.87;;
938;SDS011;456;53.584;9.968;2023-06-10T12:55:48;4.00;;;3.20;;
938;SDS011;456;53.584;9.968;2023-06-10T12:58:14;3.57;;;3.27;;
938;SDS011;456;53.584;9.968;2023-06-10T13:00:40;2.83;;;2.53;;
938;SDS011;456;53.584;9.968;2023-06-10T13:03:07;4.87;;;4.40;;
938;SDS011;456;53.584;9.968;2023-06-10T13:05:37;3.97;;;3.57;;
938;SDS011;456;53.584;9.968;2023-06-10T13:08:04;5.00;;;3.80;;
938;SDS011;456;53.584;9.968;2023-06-10T13:10:31;3.70;;;3.17;;
938;SDS011;456;53.584;9.968;2023-06-10T13:12:56;4.00;;;3.70;;
938;SDS011;456;53.584;9.968;2023-06-10T13:15:22;4.80;;;4.30;;
938;SDS011;456;53.584;9.968;2023-06-10T13:17:48;4.10;;;3.70;;
938;SDS011;456;53.584;9.968;2023-06-10T13:20:16;4.43;;;4.10;;
938;SDS011;456;53.584;9.968;2023-06-10T13:22:42;4.60;;;4.20;;
938;SDS011;456;53.584;9.968;2023-06-10T13:25:08;3.93;;;3.53;;
938;SDS011;456;53.584;9.968;2023-06-10T13:27:36;4.20;;;3.80;;
938;SDS011;456;53.584;9.968;2023-06-10T13:30:07;4.20;;;3.80;;
938;SDS011;456;53.584;9.968;2023-06-10T13:32:34;4.37;;;4.07;;
938;SDS011;456;53.584;9.968;2023-06-10T13:35:00;5.40;;;4.40;;
938;SDS011;456;53.584;9.968;2023-06-10T13:37:26;6.70;;;3.80;;
938;SDS011;456;53.584;9.968;2023-06-10T13:39:52;4.23;;;3.93;;
938;SDS011;456;53.584;9.968;2023-06-10T13:42:18;4.60;;;4.20;;
938;SDS011;456;53.584;9.968;2023-06-10T13:44:44;3.87;;;3.57;;
938;SDS011;456;53.584;9.968;2023-06-10T13:47:09;4.73;;;3.90;;
938;SDS011;456;53.584;9.968;2023-06-10T13:49:35;4.00;;;3.70;;
938;SDS011;456;53.584;9.968;2023-06-10T13:52:01;4.57;;;4.13;;
938;SDS011;456;53.584;9.968;2023-06-10T13:54:27;4.77;;;4.37;;
938;SDS011;456;53.584;9.968;2023-06-10T13:56:53;5.63;;;5.03;;
938;SDS011;456;53.584;9.968;2023-06-10T13:59:19;4.17;;;3.83;;
938;SDS011;456;53.584;9.968;2023-06-10T14:01:45;4.53;;;4.23;;
938;SDS011;456;53.584;9.968;2023-06-10T14:04:11;4.73;;;4.30;;
938;SDS011;456;53.584;9.968;2023-06-10T14:06:36;5.33;;;4.67;;
938;SDS011;456;53.584;9.968;2023-06-10T14:09:02;7.80;;;4.57;;
938;SDS011;456;53.584;9.968;2023-06-10T14:11:28;4.80;;;4.30;;
938;SDS011;456;53.584;9.968;2023-06-10T14:13:54;5.23;;;4.80;;
938;SDS011;456;53.584;9.968;2023-06-10T14:16:23;5.33;;;4.47;;
938;SDS011;456;53.584;9.968;2023-06-10T14:18:49;5.17;;;4.77;;
938;SDS011;456;53.584;9.968;2023-06-10T14:21:18;4.60;;;4.30;;
938;SDS011;456;53.584;9.968;2023-06-10T14:23:44;5.60;;;5.17;;
938;SDS011;456;53.584;9.968;2023-06-10T14:26:10;4.53;;;4.23;;
938;SDS011;456;53.584;9.968;2023-06-10T14:28:36;5.37;;;4.87;;
938;SDS011;456;53.584;9.968;2023-06-10T14:31:01;5.63;;;5.20;;
938;SDS011;456;53.584;9.968;2023-06-10T14:33:27;5.07;;;4.67;;
938;SDS011;456;53.584;9.968;2023-06-10T14:35:53;6.40;;;5.17;;
938;SDS011;456;53.584;9.968;2023-06-10T14:38:19;5.17;;;4.67;;
938;SDS011;456;53.584;9.968;2023-06-10T14:40:44;5.20;;;4.80;;
938;SDS011;456;53.584;9.968;2023-06-10T14:43:10;4.87;;;4.47;;
938;SDS011;456;53.584;9.968;2023-06-10T14:45:36;5.40;;;4.90;;
938;SDS011;456;53.584;9.968;2023-06-10T14:48:03;5.20;;;4.70;;
938;SDS011;456;53.584;9.968;2023-06-10T14:50:29;5.53;;;4.63;;
938;SDS011;456;53.584;9.968;2023-06-10T14:52:55;5.30;;;4.90;;
938;SDS011;456;53.584;9.968;2023-06-10T14:55:21;6.60;;;5.30;;
938;SDS011;456;53.584;9.968;2023-06-10T14:57:47;7.13;;;5.30;;
938;SDS011;456;53.584;9.968;2023-06-10T15:00:13;4.83;;;4.53;;
938;SDS011;456;53.584;9.968;2023-06-10T15:02:41;4.77;;;4.37;;
938;SDS011;456;53.584;9.968;2023-06-10T15:05:07;6.17;;;5.67;;
938;SDS011;456;53.584;9.968;2023-06-10T15:07:33;5.97;;;5.37;;
938;SDS011;456;53.584;9.968;2023-06-10T15:09:59;5.60;;;5.13;;
938;SDS011;456;53.584;9.968;2023-06-10T15:12:25;5.43;;;5.03;;
938;SDS011;456;53.584;9.968;2023-06-10T15:14:50;5.70;;;5.30;;
938;SDS011;456;53.584;9.968;2023-06-10T15:17:16;5.87;;;5.33;;
938;SDS011;456;53.584;9.968;2023-06-10T15:19:42;5.13;;;4.63;;
938;SDS011;456;53.584;9.968;2023-06-10T15:22:08;5.13;;;4.63;;
938;SDS011;456;53.584;9.968;2023-06-10T15:24:33;5.70;;;5.20;;
938;SDS011;456;53.584;9.968;2023-06-10T15:26:59;5.57;;;5.03;;
938;SDS011;456;53.584;9.968;2023-06-10T15:29:25;5.00;;;4.60;;
938;SDS011;456;53.584;9.968;2023-06-10T15:31:50;5.07;;;4.57;;
938;SDS011;456;53.584;9.968;2023-06-10T15:34:16;5.97;;;5.47;;
938;SDS011;456;53.584;9.968;2023-06-10T15:36:41;5.73;;;5.20;;
938;SDS011;456;53.584;9.968;2023-06-10T15:39:07;5.33;;;4.83;;
938;SDS011;456;53.584;9.968;2023-06-10T15:41:33;5.60;;;5.03;;
938;SDS011;456;53.584;9.968;2023-06-10T15:43:59;6.10;;;5.57;;
938;SDS011;456;53.584;9.968;2023-06-10T15:46:26;5.50;;;5.10;;
938;SDS011;456;53.584;9.968;2023-06-10T15:48:52;5.20;;;4.70;;
938;SDS011;456;53.584;9.968;2023-06-10T15:51:21;5.47;;;5.00;;
938;SDS011;456;53.584;9.968;2023-06-10T15:53:47;5.97;;;5.47;;
938;SDS011;456;53.584;9.968;2023-06-10T15:56:13;6.60;;;6.00;;
938;SDS011;456;53.584;9.968;2023-06-10T15:58:39;7.10;;;5.63;;
938;SDS011;456;53.584;9.968;2023-06-10T16:01:05;5.27;;;4.77;;
938;SDS011;456;53.584;9.968;2023-06-10T16:03:31;5.20;;;4.80;;
938;SDS011;456;53.584;9.968;2023-06-10T16:05:57;5.97;;;5.33;;
938;SDS011;456;53.584;9.968;2023-06-10T16:08:22;5.27;;;4.77;;
938;SDS011;456;53.584;9.968;2023-06-10T16:10:48;6.20;;;5.77;;